sensor_id;sensor_type;location;lat;lon;timestamp;pressure;altitude;pressure_sealevel;temperature;humidity
53960;BME280;39866;48.638;-2.020;2023-08-20T00:01:42;101888.16;;;25.86;100.00
53960;BME280;39866;48.638;-2.020;2023-08-20T00:04:08;101889.03;;;25.87;100.00
53960;BME280;39866;48.638;-2.020;2023-08-20T00:06:34;101890.44;;;25.92;100.00
53960;BME280;39866;48.638;-2.020;2023-08-20T00:09:00;101885.06;;;25.91;100.00
53960;BME280;39866;48.638;-2.020;2023-08-20T00:11:25;101888.03;;;25.88;100.00
53960;BME280;39866;48.638;-2.020;2023-08-20T00:13:50;101889.03;;;25.87;100.00
53960;BME280;39866;48.638;-2.020;2023-08-20T00:16:16;101890.88;;;25.86;100.00
53960;BME280;39866;48.638;-2.020;2023-08-20T00:18:42;101891.97;;;25.84;100.00
53960;BME280;39866;48.638;-2.020;2023-08-20T00:21:08;101882.06;;;25.83;100.00
53960;BME280;39866;48.638;-2.020;2023-08-20T00:23:35;101886.88;;;25.79;100.00
53960;BME280;39866;48.638;-2.020;2023-08-20T00:26:01;101887.63;;;25.81;100.00
53960;BME280;39866;48.638;-2.020;2023-08-20T00:28:27;101890.16;;;25.84;100.00
53960;BME280;39866;48.638;-2.020;2023-08-20T00:30:52;101885.22;;;25.77;100.00
53960;BME280;39866;48.638;-2.020;2023-08-20T00:33:18;101887.00;;;25.78;100.00
53960;BME280;39866;48.638;-2.020;2023-08-20T00:35:43;101892.44;;;25.78;100.00
53960;BME280;39866;48.638;-2.020;2023-08-20T00:38:08;101886.44;;;25.73;100.00
53960;BME280;39866;48.638;-2.020;2023-08-20T00:40:34;101892.00;;;25.71;100.00
53960;BME280;39866;48.638;-2.020;2023-08-20T00:43:00;101892.97;;;25.70;100.00
53960;BME280;39866;48.638;-2.020;2023-08-20T00:45:26;101889.38;;;25.69;100.00
53960;BME280;39866;48.638;-2.020;2023-08-20T00:47:52;101897.78;;;25.66;100.00
53960;BME280;39866;48.638;-2.020;2023-08-20T00:50:18;101898.00;;;25.63;100.00
53960;BME280;39866;48.638;-2.020;2023-08-20T00:52:44;101898.25;;;25.60;100.00
53960;BME280;39866;48.638;-2.020;2023-08-20T00:55:11;101895.63;;;25.59;100.00
53960;BME280;39866;48.638;-2.020;2023-08-20T00:57:38;101901.72;;;25.62;100.00
53960;BME280;39866;48.638;-2.020;2023-08-20T01:00:04;101903.38;;;25.65;100.00
53960;BME280;39866;48.638;-2.020;2023-08-20T01:02:34;101903.47;;;25.63;100.00
53960;BME280;39866;48.638;-2.020;2023-08-20T01:05:00;101901.63;;;25.64;100.00
53960;BME280;39866;48.638;-2.020;2023-08-20T01:07:48;101902.19;;;25.56;100.00
53960;BME280;39866;48.638;-2.020;2023-08-20T01:13:00;101907.41;;;25.59;100.00
53960;BME280;39866;48.638;-2.020;2023-08-20T01:15:27;101912.63;;;25.62;100.00
53960;BME280;39866;48.638;-2.020;2023-08-20T01:17:52;101913.22;;;25.42;100.00
53960;BME280;39866;48.638;-2.020;2023-08-20T01:20:18;101911.91;;;25.35;100.00
53960;BME280;39866;48.638;-2.020;2023-08-20T01:30:50;101906.50;;;25.22;100.00
53960;BME280;39866;48.638;-2.020;2023-08-20T01:33:17;101909.47;;;25.19;100.00
53960;BME280;39866;48.638;-2.020;2023-08-20T01:35:43;101910.31;;;25.19;100.00
53960;BME280;39866;48.638;-2.020;2023-08-20T01:38:09;101916.97;;;25.15;100.00
53960;BME280;39866;48.638;-2.020;2023-08-20T01:40:34;101915.13;;;25.16;100.00
53960;BME280;39866;48.638;-2.020;2023-08-20T01:43:00;101922.44;;;25.15;100.00
53960;BME280;39866;48.638;-2.020;2023-08-20T01:45:25;101917.38;;;25.35;100.00
53960;BME280;39866;48.638;-2.020;2023-08-20T01:47:51;101924.69;;;25.22;100.00
53960;BME280;39866;48.638;-2.020;2023-08-20T01:50:17;101923.19;;;25.17;100.00
53960;BME280;39866;48.638;-2.020;2023-08-20T01:52:42;101926.03;;;25.16;100.00
53960;BME280;39866;48.638;-2.020;2023-08-20T01:55:08;101916.50;;;24.96;100.00
53960;BME280;39866;48.638;-2.020;2023-08-20T01:57:33;101917.69;;;25.05;100.00
53960;BME280;39866;48.638;-2.020;2023-08-20T01:59:58;101921.41;;;25.04;100.00
53960;BME280;39866;48.638;-2.020;2023-08-20T02:02:24;101919.03;;;24.99;100.00
53960;BME280;39866;48.638;-2.020;2023-08-20T02:04:49;101929.81;;;25.01;100.00
53960;BME280;39866;48.638;-2.020;2023-08-20T02:07:15;101926.94;;;25.02;100.00
53960;BME280;39866;48.638;-2.020;2023-08-20T02:09:40;101933.75;;;25.09;100.00
53960;BME280;39866;48.638;-2.020;2023-08-20T02:12:06;101927.53;;;25.07;100.00
53960;BME280;39866;48.638;-2.020;2023-08-20T02:14:31;101939.38;;;25.06;100.00
53960;BME280;39866;48.638;-2.020;2023-08-20T02:17:00;101933.19;;;25.04;100.00
53960;BME280;39866;48.638;-2.020;2023-08-20T02:19:26;101928.94;;;25.00;100.00
53960;BME280;39866;48.638;-2.020;2023-08-20T02:21:52;101945.41;;;24.99;100.00
53960;BME280;39866;48.638;-2.020;2023-08-20T02:24:18;101935.13;;;25.02;100.00
53960;BME280;39866;48.638;-2.020;2023-08-20T02:26:43;101935.13;;;25.02;100.00
53960;BME280;39866;48.638;-2.020;2023-08-20T02:29:08;101942.97;;;24.94;100.00
53960;BME280;39866;48.638;-2.020;2023-08-20T02:31:35;101941.16;;;24.94;100.00
53960;BME280;39866;48.638;-2.020;2023-08-20T02:34:00;101942.97;;;24.94;100.00
53960;BME280;39866;48.638;-2.020;2023-08-20T02:36:25;101937.97;;;24.88;100.00
53960;BME280;39866;48.638;-2.020;2023-08-20T02:38:51;101935.91;;;24.91;100.00
53960;BME280;39866;48.638;-2.020;2023-08-20T02:41:16;101937.75;;;24.91;100.00
53960;BME280;39866;48.638;-2.020;2023-08-20T02:43:41;101930.34;;;24.93;100.00
53960;BME280;39866;48.638;-2.020;2023-08-20T02:46:07;101941.22;;;24.93;100.00
53960;BME280;39866;48.638;-2.020;2023-08-20T02:48:32;101937.63;;;24.92;100.00
53960;BME280;39866;48.638;-2.020;2023-08-20T02:50:57;101943.28;;;24.89;100.00
53960;BME280;39866;48.638;-2.020;2023-08-20T02:53:23;101954.53;;;24.85;100.00
53960;BME280;39866;48.638;-2.020;2023-08-20T02:55:48;101944.16;;;24.77;100.00
53960;BME280;39866;48.638;-2.020;2023-08-20T02:58:14;101948.72;;;24.77;100.00
53960;BME280;39866;48.638;-2.020;2023-08-20T03:00:41;101948.41;;;24.68;100.00
53960;BME280;39866;48.638;-2.020;2023-08-20T03:03:07;101954.38;;;24.74;100.00
53960;BME280;39866;48.638;-2.020;2023-08-20T03:05:34;101946.22;;;24.74;100.00
53960;BME280;39866;48.638;-2.020;2023-08-20T03:07:59;101949.06;;;24.72;100.00
53960;BME280;39866;48.638;-2.020;2023-08-20T03:10:26;101945.47;;;24.71;100.00
53960;BME280;39866;48.638;-2.020;2023-08-20T03:12:51;101951.91;;;24.70;100.00
53960;BME280;39866;48.638;-2.020;2023-08-20T03:15:17;101954.50;;;24.72;100.00
53960;BME280;39866;48.638;-2.020;2023-08-20T03:17:42;101950.44;;;24.65;100.00
53960;BME280;39866;48.638;-2.020;2023-08-20T03:20:08;101949.03;;;24.59;100.00
53960;BME280;39866;48.638;-2.020;2023-08-20T03:22:36;101947.50;;;24.55;100.00
53960;BME280;39866;48.638;-2.020;2023-08-20T03:25:02;101954.47;;;24.59;100.00
53960;BME280;39866;48.638;-2.020;2023-08-20T03:27:27;101956.22;;;24.60;100.00
53960;BME280;39866;48.638;-2.020;2023-08-20T03:29:52;101953.50;;;24.60;100.00
53960;BME280;39866;48.638;-2.020;2023-08-20T03:32:18;101953.50;;;24.60;100.00
53960;BME280;39866;48.638;-2.020;2023-08-20T03:34:43;101944.47;;;24.60;100.00
53960;BME280;39866;48.638;-2.020;2023-08-20T03:37:09;101951.63;;;24.61;100.00
53960;BME280;39866;48.638;-2.020;2023-08-20T03:39:34;101950.56;;;24.63;100.00
53960;BME280;39866;48.638;-2.020;2023-08-20T03:41:59;101954.94;;;24.66;100.00
53960;BME280;39866;48.638;-2.020;2023-08-20T03:44:25;101953.19;;;24.65;100.00
53960;BME280;39866;48.638;-2.020;2023-08-20T03:46:50;101955.34;;;24.60;100.00
53960;BME280;39866;48.638;-2.020;2023-08-20T03:49:16;101949.78;;;24.61;100.00
53960;BME280;39866;48.638;-2.020;2023-08-20T03:51:41;101957.31;;;24.58;100.00
53960;BME280;39866;48.638;-2.020;2023-08-20T03:54:08;101954.81;;;24.55;100.00
53960;BME280;39866;48.638;-2.020;2023-08-20T03:56:33;101955.13;;;24.50;100.00
53960;BME280;39866;48.638;-2.020;2023-08-20T03:58:59;101957.72;;;24.52;100.00
53960;BME280;39866;48.638;-2.020;2023-08-20T04:01:24;101952.47;;;24.49;100.00
53960;BME280;39866;48.638;-2.020;2023-08-20T04:03:49;101959.06;;;24.59;100.00
53960;BME280;39866;48.638;-2.020;2023-08-20T04:06:15;101957.31;;;24.58;100.00
53960;BME280;39866;48.638;-2.020;2023-08-20T04:08:40;101953.94;;;24.54;100.00
53960;BME280;39866;48.638;-2.020;2023-08-20T04:11:06;101956.75;;;24.53;100.00
53960;BME280;39866;48.638;-2.020;2023-08-20T04:13:31;101959.47;;;24.53;100.00
53960;BME280;39866;48.638;-2.020;2023-08-20T04:15:56;101958.78;;;24.49;100.00
53960;BME280;39866;48.638;-2.020;2023-08-20T04:18:22;101958.59;;;24.52;100.00
53960;BME280;39866;48.638;-2.020;2023-08-20T04:20:50;101958.38;;;24.55;100.00
53960;BME280;39866;48.638;-2.020;2023-08-20T04:23:15;101963.94;;;24.54;100.00
53960;BME280;39866;48.638;-2.020;2023-08-20T04:25:41;101961.22;;;24.54;100.00
53960;BME280;39866;48.638;-2.020;2023-08-20T04:28:06;101962.31;;;24.51;100.00
53960;BME280;39866;48.638;-2.020;2023-08-20T04:30:32;101964.91;;;24.53;100.00
53960;BME280;39866;48.638;-2.020;2023-08-20T04:32:57;101966.97;;;24.49;100.00
53960;BME280;39866;48.638;-2.020;2023-08-20T04:35:22;101974.06;;;24.52;100.00
53960;BME280;39866;48.638;-2.020;2023-08-20T04:37:47;101966.22;;;24.47;100.00
53960;BME280;39866;48.638;-2.020;2023-08-20T04:40:13;101967.19;;;24.46;100.00
53960;BME280;39866;48.638;-2.020;2023-08-20T04:42:38;101973.19;;;24.51;100.00
53960;BME280;39866;48.638;-2.020;2023-08-20T04:45:04;101986.81;;;24.51;100.00
53960;BME280;39866;48.638;-2.020;2023-08-20T04:47:29;101987.56;;;24.53;100.00
53960;BME280;39866;48.638;-2.020;2023-08-20T04:49:55;101983.88;;;24.54;100.00
53960;BME280;39866;48.638;-2.020;2023-08-20T04:52:20;101979.50;;;24.52;100.00
53960;BME280;39866;48.638;-2.020;2023-08-20T04:54:47;101984.06;;;24.51;100.00
53960;BME280;39866;48.638;-2.020;2023-08-20T04:57:12;101985.94;;;24.51;100.00
53960;BME280;39866;48.638;-2.020;2023-08-20T04:59:38;101984.28;;;24.48;100.00
53960;BME280;39866;48.638;-2.020;2023-08-20T05:02:03;101987.13;;;24.46;100.00
53960;BME280;39866;48.638;-2.020;2023-08-20T05:04:28;101996.03;;;24.49;100.00
53960;BME280;39866;48.638;-2.020;2023-08-20T05:06:54;101990.72;;;24.47;100.00
53960;BME280;39866;48.638;-2.020;2023-08-20T05:09:19;101990.59;;;24.49;100.00
53960;BME280;39866;48.638;-2.020;2023-08-20T05:11:44;101994.09;;;24.51;100.00
53960;BME280;39866;48.638;-2.020;2023-08-20T05:14:10;101998.69;;;24.50;100.00
53960;BME280;39866;48.638;-2.020;2023-08-20T05:16:35;101996.91;;;24.49;100.00
53960;BME280;39866;48.638;-2.020;2023-08-20T05:19:00;101999.44;;;24.52;100.00
53960;BME280;39866;48.638;-2.020;2023-08-20T05:21:26;102003.13;;;24.51;100.00
53960;BME280;39866;48.638;-2.020;2023-08-20T05:23:51;102003.13;;;24.51;100.00
53960;BME280;39866;48.638;-2.020;2023-08-20T05:26:16;102006.06;;;24.48;100.00
53960;BME280;39866;48.638;-2.020;2023-08-20T05:28:42;101999.63;;;24.49;100.00
53960;BME280;39866;48.638;-2.020;2023-08-20T05:31:07;102000.41;;;24.51;100.00
53960;BME280;39866;48.638;-2.020;2023-08-20T05:33:32;102005.84;;;24.51;100.00
53960;BME280;39866;48.638;-2.020;2023-08-20T05:35:59;102004.13;;;24.50;100.00
53960;BME280;39866;48.638;-2.020;2023-08-20T05:38:24;102005.31;;;24.46;100.00
53960;BME280;39866;48.638;-2.020;2023-08-20T05:40:50;102002.91;;;24.41;100.00
53960;BME280;39866;48.638;-2.020;2023-08-20T05:43:15;102003.75;;;24.42;100.00
53960;BME280;39866;48.638;-2.020;2023-08-20T05:45:40;102003.53;;;24.45;100.00
53960;BME280;39866;48.638;-2.020;2023-08-20T05:48:06;101997.03;;;24.48;100.00
53960;BME280;39866;48.638;-2.020;2023-08-20T05:50:31;102000.25;;;24.40;100.00
53960;BME280;39866;48.638;-2.020;2023-08-20T05:52:56;101999.06;;;24.44;100.00
53960;BME280;39866;48.638;-2.020;2023-08-20T05:55:22;102008.41;;;24.40;100.00
53960;BME280;39866;48.638;-2.020;2023-08-20T05:57:47;101994.72;;;24.41;100.00
53960;BME280;39866;48.638;-2.020;2023-08-20T06:00:12;102006.72;;;24.52;100.00
53960;BME280;39866;48.638;-2.020;2023-08-20T06:02:38;102005.69;;;24.40;100.00
53960;BME280;39866;48.638;-2.020;2023-08-20T06:05:04;102004.31;;;24.33;100.00
53960;BME280;39866;48.638;-2.020;2023-08-20T06:07:33;102006.09;;;24.34;100.00
53960;BME280;39866;48.638;-2.020;2023-08-20T06:09:58;102006.09;;;24.34;100.00
53960;BME280;39866;48.638;-2.020;2023-08-20T06:12:24;102008.81;;;24.34;100.00
53960;BME280;39866;48.638;-2.020;2023-08-20T06:14:49;102015.31;;;24.31;100.00
53960;BME280;39866;48.638;-2.020;2023-08-20T06:17:15;102024.75;;;24.40;100.00
53960;BME280;39866;48.638;-2.020;2023-08-20T06:19:41;102037.16;;;24.58;100.00
53960;BME280;39866;48.638;-2.020;2023-08-20T06:22:06;102034.19;;;24.61;100.00
53960;BME280;39866;48.638;-2.020;2023-08-20T06:24:32;102026.81;;;24.63;100.00
53960;BME280;39866;48.638;-2.020;2023-08-20T06:26:57;102035.72;;;24.65;100.00
53960;BME280;39866;48.638;-2.020;2023-08-20T06:29:22;102035.44;;;24.70;100.00
53960;BME280;39866;48.638;-2.020;2023-08-20T06:31:48;102027.38;;;24.41;100.00
53960;BME280;39866;48.638;-2.020;2023-08-20T06:34:14;102027.59;;;24.38;100.00
53960;BME280;39866;48.638;-2.020;2023-08-20T06:36:39;102040.69;;;24.46;100.00
53960;BME280;39866;48.638;-2.020;2023-08-20T06:39:05;102043.09;;;24.51;100.00
53960;BME280;39866;48.638;-2.020;2023-08-20T06:41:30;102040.94;;;24.56;100.00
53960;BME280;39866;48.638;-2.020;2023-08-20T06:43:56;102048.03;;;24.58;100.00
53960;BME280;39866;48.638;-2.020;2023-08-20T06:46:21;102043.34;;;24.60;100.00
53960;BME280;39866;48.638;-2.020;2023-08-20T06:48:47;102047.06;;;24.59;100.00
53960;BME280;39866;48.638;-2.020;2023-08-20T06:51:15;102054.16;;;24.62;100.00
53960;BME280;39866;48.638;-2.020;2023-08-20T06:53:41;102059.75;;;24.46;100.00
53960;BME280;39866;48.638;-2.020;2023-08-20T06:56:09;102054.06;;;24.49;100.00
53960;BME280;39866;48.638;-2.020;2023-08-20T06:58:36;102054.50;;;24.43;100.00
53960;BME280;39866;48.638;-2.020;2023-08-20T07:01:02;102056.03;;;24.47;100.00
53960;BME280;39866;48.638;-2.020;2023-08-20T07:05:59;102056.59;;;24.52;100.00
53960;BME280;39866;48.638;-2.020;2023-08-20T07:08:24;102055.72;;;24.52;100.00
53960;BME280;39866;48.638;-2.020;2023-08-20T07:10:50;102064.75;;;24.52;100.00
53960;BME280;39866;48.638;-2.020;2023-08-20T07:13:15;102058.34;;;24.53;100.00
53960;BME280;39866;48.638;-2.020;2023-08-20T07:15:40;102062.03;;;24.52;100.00
53960;BME280;39866;48.638;-2.020;2023-08-20T07:18:06;102057.38;;;24.54;100.00
53960;BME280;39866;48.638;-2.020;2023-08-20T07:20:31;102057.28;;;24.56;100.00
53960;BME280;39866;48.638;-2.020;2023-08-20T07:22:56;102053.84;;;24.66;100.00
53960;BME280;39866;48.638;-2.020;2023-08-20T07:25:22;102055.38;;;24.70;100.00
53960;BME280;39866;48.638;-2.020;2023-08-20T07:27:47;102074.81;;;24.79;100.00
53960;BME280;39866;48.638;-2.020;2023-08-20T07:30:13;102070.22;;;24.79;100.00
53960;BME280;39866;48.638;-2.020;2023-08-20T07:32:38;102072.06;;;24.79;100.00
53960;BME280;39866;48.638;-2.020;2023-08-20T07:35:04;102072.28;;;24.76;100.00
53960;BME280;39866;48.638;-2.020;2023-08-20T07:37:29;102079.91;;;24.70;100.00
53960;BME280;39866;48.638;-2.020;2023-08-20T07:39:54;102078.06;;;24.57;100.00
53960;BME280;39866;48.638;-2.020;2023-08-20T07:42:20;102082.56;;;24.58;100.00
53960;BME280;39866;48.638;-2.020;2023-08-20T07:44:45;102096.75;;;24.63;100.00
53960;BME280;39866;48.638;-2.020;2023-08-20T07:47:10;102090.19;;;24.65;100.00
53960;BME280;39866;48.638;-2.020;2023-08-20T07:49:36;102094.00;;;24.63;100.00
53960;BME280;39866;48.638;-2.020;2023-08-20T07:52:01;102093.69;;;24.67;100.00
53960;BME280;39866;48.638;-2.020;2023-08-20T07:54:27;102098.00;;;24.57;100.00
53960;BME280;39866;48.638;-2.020;2023-08-20T07:56:53;102096.56;;;24.52;100.00
53960;BME280;39866;48.638;-2.020;2023-08-20T07:59:19;102100.34;;;24.49;100.00
53960;BME280;39866;48.638;-2.020;2023-08-20T08:01:44;102099.41;;;24.50;100.00
53960;BME280;39866;48.638;-2.020;2023-08-20T08:04:09;102098.53;;;24.35;100.00
53960;BME280;39866;48.638;-2.020;2023-08-20T08:06:35;102101.81;;;24.55;100.00
53960;BME280;39866;48.638;-2.020;2023-08-20T08:09:20;102102.81;;;24.54;100.00
53960;BME280;39866;48.638;-2.020;2023-08-20T08:11:46;102106.97;;;24.45;100.00
53960;BME280;39866;48.638;-2.020;2023-08-20T08:14:12;102096.59;;;24.37;100.00
53960;BME280;39866;48.638;-2.020;2023-08-20T08:16:37;102100.97;;;24.26;100.00
53960;BME280;39866;48.638;-2.020;2023-08-20T08:19:03;102110.19;;;24.23;100.00
53960;BME280;39866;48.638;-2.020;2023-08-20T08:21:28;102102.50;;;24.44;100.00
53960;BME280;39866;48.638;-2.020;2023-08-20T08:23:53;102105.41;;;24.55;100.00
53960;BME280;39866;48.638;-2.020;2023-08-20T08:26:19;102108.97;;;24.70;100.00
53960;BME280;39866;48.638;-2.020;2023-08-20T08:28:44;102102.56;;;24.71;100.00
53960;BME280;39866;48.638;-2.020;2023-08-20T08:31:09;102102.25;;;24.61;100.00
53960;BME280;39866;48.638;-2.020;2023-08-20T08:33:35;102103.00;;;24.51;100.00
53960;BME280;39866;48.638;-2.020;2023-08-20T08:36:00;102098.31;;;24.53;100.00
53960;BME280;39866;48.638;-2.020;2023-08-20T08:38:26;102100.84;;;24.56;100.00
53960;BME280;39866;48.638;-2.020;2023-08-20T08:40:51;102091.78;;;24.55;100.00
53960;BME280;39866;48.638;-2.020;2023-08-20T08:43:18;102101.16;;;24.51;100.00
53960;BME280;39866;48.638;-2.020;2023-08-20T08:45:46;102103.09;;;24.35;100.00
53960;BME280;39866;48.638;-2.020;2023-08-20T08:48:14;102103.97;;;24.50;100.00
53960;BME280;39866;48.638;-2.020;2023-08-20T08:50:40;102112.91;;;24.52;100.00
53960;BME280;39866;48.638;-2.020;2023-08-20T08:53:06;102103.44;;;24.57;100.00
53960;BME280;39866;48.638;-2.020;2023-08-20T08:55:32;102115.25;;;24.58;100.00
53960;BME280;39866;48.638;-2.020;2023-08-20T08:57:58;102118.22;;;24.53;100.00
53960;BME280;39866;48.638;-2.020;2023-08-20T09:00:23;102113.56;;;24.55;100.00
53960;BME280;39866;48.638;-2.020;2023-08-20T09:02:48;102117.16;;;24.56;100.00
53960;BME280;39866;48.638;-2.020;2023-08-20T09:05:14;102116.56;;;24.65;100.00
53960;BME280;39866;48.638;-2.020;2023-08-20T09:07:43;102121.25;;;24.63;100.00
53960;BME280;39866;48.638;-2.020;2023-08-20T09:10:10;102116.34;;;24.68;100.00
53960;BME280;39866;48.638;-2.020;2023-08-20T09:12:35;102120.25;;;24.64;100.00
53960;BME280;39866;48.638;-2.020;2023-08-20T09:15:01;102117.06;;;24.57;100.00
53960;BME280;39866;48.638;-2.020;2023-08-20T09:17:26;102114.44;;;24.56;100.00
53960;BME280;39866;48.638;-2.020;2023-08-20T09:19:54;102116.50;;;24.52;100.00
53960;BME280;39866;48.638;-2.020;2023-08-20T09:22:22;102114.34;;;24.57;100.00
53960;BME280;39866;48.638;-2.020;2023-08-20T09:24:55;102116.09;;;24.58;100.00
53960;BME280;39866;48.638;-2.020;2023-08-20T09:27:22;102123.50;;;24.56;100.00
53960;BME280;39866;48.638;-2.020;2023-08-20T09:29:51;102118.03;;;24.56;100.00
53960;BME280;39866;48.638;-2.020;2023-08-20T09:32:19;102113.38;;;24.58;100.00
53960;BME280;39866;48.638;-2.020;2023-08-20T09:34:45;102120.19;;;24.51;100.00
53960;BME280;39866;48.638;-2.020;2023-08-20T09:37:15;102111.97;;;24.65;100.00
53960;BME280;39866;48.638;-2.020;2023-08-20T09:39:41;102121.81;;;24.68;100.00
53960;BME280;39866;48.638;-2.020;2023-08-20T09:42:08;102124.22;;;24.73;100.00
53960;BME280;39866;48.638;-2.020;2023-08-20T09:44:38;102125.56;;;24.80;100.00
53960;BME280;39866;48.638;-2.020;2023-08-20T09:47:09;102126.56;;;24.79;100.00
53960;BME280;39866;48.638;-2.020;2023-08-20T09:49:37;102122.28;;;24.75;100.00
53960;BME280;39866;48.638;-2.020;2023-08-20T09:52:11;102118.56;;;24.76;100.00
53960;BME280;39866;48.638;-2.020;2023-08-20T09:54:50;102115.44;;;24.82;100.00
53960;BME280;39866;48.638;-2.020;2023-08-20T09:57:30;102113.88;;;24.78;100.00
53960;BME280;39866;48.638;-2.020;2023-08-20T09:59:58;102120.00;;;24.81;100.00
53960;BME280;39866;48.638;-2.020;2023-08-20T10:02:25;102116.91;;;24.73;100.00
53960;BME280;39866;48.638;-2.020;2023-08-20T10:04:51;102120.50;;;24.74;100.00
53960;BME280;39866;48.638;-2.020;2023-08-20T10:07:17;102124.22;;;24.73;100.00
53960;BME280;39866;48.638;-2.020;2023-08-20T10:09:43;102125.31;;;24.70;100.00
53960;BME280;39866;48.638;-2.020;2023-08-20T10:12:12;102125.22;;;24.57;100.00
53960;BME280;39866;48.638;-2.020;2023-08-20T10:14:38;102127.72;;;24.75;100.00
53960;BME280;39866;48.638;-2.020;2023-08-20T10:17:08;102132.38;;;24.73;100.00
53960;BME280;39866;48.638;-2.020;2023-08-20T10:19:36;102130.22;;;24.78;100.00
53960;BME280;39866;48.638;-2.020;2023-08-20T10:22:02;102135.28;;;24.84;100.00
53960;BME280;39866;48.638;-2.020;2023-08-20T10:24:28;102136.03;;;24.86;100.00
53960;BME280;39866;48.638;-2.020;2023-08-20T10:27:11;102138.09;;;24.55;100.00
53960;BME280;39866;48.638;-2.020;2023-08-20T10:29:40;102136.47;;;24.80;100.00
53960;BME280;39866;48.638;-2.020;2023-08-20T10:32:11;102131.00;;;24.80;100.00
53960;BME280;39866;48.638;-2.020;2023-08-20T10:34:38;102141.44;;;24.73;100.00
53960;BME280;39866;48.638;-2.020;2023-08-20T10:37:15;102149.66;;;24.59;100.00
53960;BME280;39866;48.638;-2.020;2023-08-20T10:39:53;102146.75;;;24.48;100.00
53960;BME280;39866;48.638;-2.020;2023-08-20T10:45:07;102151.31;;;24.47;100.00
53960;BME280;39866;48.638;-2.020;2023-08-20T10:47:47;102161.16;;;24.50;100.00
53960;BME280;39866;48.638;-2.020;2023-08-20T10:50:18;102153.75;;;24.52;100.00
53960;BME280;39866;48.638;-2.020;2023-08-20T10:52:48;102164.63;;;24.52;100.00
53960;BME280;39866;48.638;-2.020;2023-08-20T10:55:15;102159.06;;;24.53;100.00
53960;BME280;39866;48.638;-2.020;2023-08-20T10:57:40;102157.34;;;24.52;100.00
53960;BME280;39866;48.638;-2.020;2023-08-20T11:00:07;102155.59;;;24.51;100.00
53960;BME280;39866;48.638;-2.020;2023-08-20T11:02:37;102154.81;;;24.49;100.00
53960;BME280;39866;48.638;-2.020;2023-08-20T11:05:04;102154.41;;;24.55;100.00
53960;BME280;39866;48.638;-2.020;2023-08-20T11:07:30;102146.50;;;24.38;100.00
53960;BME280;39866;48.638;-2.020;2023-08-20T11:09:57;102149.88;;;24.41;100.00
53960;BME280;39866;48.638;-2.020;2023-08-20T11:12:22;102152.59;;;24.41;100.00
53960;BME280;39866;48.638;-2.020;2023-08-20T11:14:48;102147.50;;;24.35;100.00
53960;BME280;39866;48.638;-2.020;2023-08-20T11:17:13;102150.34;;;24.34;100.00
53960;BME280;39866;48.638;-2.020;2023-08-20T11:19:39;102144.03;;;24.33;100.00
53960;BME280;39866;48.638;-2.020;2023-08-20T11:22:05;102144.22;;;24.30;100.00
53960;BME280;39866;48.638;-2.020;2023-08-20T11:24:30;102147.25;;;24.26;100.00
53960;BME280;39866;48.638;-2.020;2023-08-20T11:26:56;102144.59;;;24.24;100.00
53960;BME280;39866;48.638;-2.020;2023-08-20T11:29:21;102139.75;;;24.29;100.00
53960;BME280;39866;48.638;-2.020;2023-08-20T11:31:48;102144.78;;;24.35;100.00
53960;BME280;39866;48.638;-2.020;2023-08-20T11:34:14;102146.06;;;24.44;100.00
53960;BME280;39866;48.638;-2.020;2023-08-20T11:36:39;102141.41;;;24.46;100.00
53960;BME280;39866;48.638;-2.020;2023-08-20T11:39:06;102137.88;;;24.58;100.00
53960;BME280;39866;48.638;-2.020;2023-08-20T11:41:35;102140.69;;;24.57;100.00
53960;BME280;39866;48.638;-2.020;2023-08-20T11:44:01;102134.56;;;24.67;100.00
53960;BME280;39866;48.638;-2.020;2023-08-20T11:46:26;102142.72;;;24.67;100.00
53960;BME280;39866;48.638;-2.020;2023-08-20T11:51:23;102143.78;;;24.65;100.00
53960;BME280;39866;48.638;-2.020;2023-08-20T11:53:49;102133.88;;;24.64;100.00
53960;BME280;39866;48.638;-2.020;2023-08-20T11:56:14;102145.56;;;24.66;100.00
53960;BME280;39866;48.638;-2.020;2023-08-20T11:58:40;102144.47;;;24.68;100.00
53960;BME280;39866;48.638;-2.020;2023-08-20T12:01:07;102139.56;;;24.74;100.00
53960;BME280;39866;48.638;-2.020;2023-08-20T12:03:34;102137.38;;;24.66;100.00
53960;BME280;39866;48.638;-2.020;2023-08-20T12:06:17;102135.59;;;24.79;100.00
53960;BME280;39866;48.638;-2.020;2023-08-20T12:08:43;102135.47;;;24.81;100.00
53960;BME280;39866;48.638;-2.020;2023-08-20T12:11:09;102131.69;;;24.83;100.00
53960;BME280;39866;48.638;-2.020;2023-08-20T12:13:34;102131.00;;;24.80;100.00
53960;BME280;39866;48.638;-2.020;2023-08-20T12:16:00;102127.50;;;24.78;100.00
53960;BME280;39866;48.638;-2.020;2023-08-20T12:18:25;102132.94;;;24.78;100.00
53960;BME280;39866;48.638;-2.020;2023-08-20T12:20:50;102119.91;;;24.83;100.00
53960;BME280;39866;48.638;-2.020;2023-08-20T12:23:16;102128.19;;;24.81;100.00
53960;BME280;39866;48.638;-2.020;2023-08-20T12:25:41;102125.97;;;24.74;100.00
53960;BME280;39866;48.638;-2.020;2023-08-20T12:28:07;102124.41;;;24.69;100.00
53960;BME280;39866;48.638;-2.020;2023-08-20T12:30:33;102128.13;;;24.68;100.00
53960;BME280;39866;48.638;-2.020;2023-08-20T12:33:00;102129.88;;;24.69;100.00
53960;BME280;39866;48.638;-2.020;2023-08-20T12:35:25;102120.13;;;24.80;100.00
53960;BME280;39866;48.638;-2.020;2023-08-20T12:37:51;102125.75;;;24.77;100.00
53960;BME280;39866;48.638;-2.020;2023-08-20T12:40:16;102129.63;;;24.87;100.00
53960;BME280;39866;48.638;-2.020;2023-08-20T12:42:43;102126.69;;;24.90;100.00
53960;BME280;39866;48.638;-2.020;2023-08-20T12:45:08;102128.03;;;24.97;100.00